Time;durP1;ratioP1;P1;durP2;ratioP2;P2;SDS_P1;SDS_P2;PMS_P1;PMS_P2;Temp;Humidity;BMP_temperature;BMP_pressure;BME280_temperature;BME280_humidity;BME280_pressure;Samples;Min_cycle;Max_cycle;Signal;HPM_P1;HPM_P2
2022/08/27 00:01:19;;;;;;;31.60;25.93;;;;;;;;;;5000712;28;20443;-53
2022/08/27 00:03:45;;;;;;;38.23;26.27;;;;;;;;;;5022904;28;20501;-54
2022/08/27 00:06:12;;;;;;;39.67;27.03;;;;;;;;;;4983261;28;20467;-54
2022/08/27 00:08:39;;;;;;;37.53;28.40;;;;;;;;;;5027691;28;20188;-54
2022/08/27 00:11:05;;;;;;;35.93;26.90;;;;;;;;;;5009503;28;20594;-54
2022/08/27 00:13:31;;;;;;;37.10;28.03;;;;;;;;;;5028654;28;20435;-53
2022/08/27 00:15:57;;;;;;;35.37;25.07;;;;;;;;;;5021912;28;20435;-53
2022/08/27 00:18:23;;;;;;;36.67;25.97;;;;;;;;;;5007017;28;20199;-54
2022/08/27 00:20:49;;;;;;;35.90;28.00;;;;;;;;;;5023487;28;21162;-54
2022/08/27 00:23:15;;;;;;;36.00;25.03;;;;;;;;;;5026164;28;20527;-54
2022/08/27 00:25:41;;;;;;;36.90;27.10;;;;;;;;;;5002903;28;21169;-54
2022/08/27 00:28:07;;;;;;;30.90;25.17;;;;;;;;;;5007244;28;20968;-54
2022/08/27 00:30:34;;;;;;;31.23;25.17;;;;;;;;;;5024313;28;20545;-53
2022/08/27 00:33:00;;;;;;;33.80;25.40;;;;;;;;;;5009171;28;20530;-54
2022/08/27 00:35:26;;;;;;;31.33;25.70;;;;;;;;;;5026634;28;20516;-54
2022/08/27 00:37:51;;;;;;;33.30;25.37;;;;;;;;;;5021161;28;20432;-54
2022/08/27 00:40:19;;;;;;;28.80;23.73;;;;;;;;;;5020718;28;20423;-53
2022/08/27 00:42:45;;;;;;;31.07;26.00;;;;;;;;;;5009370;28;20228;-54
2022/08/27 00:45:12;;;;;;;32.70;26.83;;;;;;;;;;5023394;28;20446;-54
2022/08/27 00:47:40;;;;;;;37.40;25.67;;;;;;;;;;5016583;28;20451;-53
2022/08/27 00:50:07;;;;;;;35.23;26.90;;;;;;;;;;4999063;28;20434;-53
2022/08/27 00:53:00;;;;;;;31.07;25.00;;;;;;;;;;5003514;28;20472;-54
2022/08/27 00:56:05;;;;;;;36.00;27.70;;;;;;;;;;5012226;28;20477;-56
2022/08/27 00:58:32;;;;;;;38.93;26.13;;;;;;;;;;4961964;28;20449;-53
2022/08/27 01:00:58;;;;;;;36.70;25.53;;;;;;;;;;4957482;28;20657;-53
2022/08/27 01:03:25;;;;;;;38.27;26.47;;;;;;;;;;4989177;28;20451;-53
2022/08/27 01:05:51;;;;;;;35.03;26.80;;;;;;;;;;5016921;28;21185;-53
2022/08/27 01:08:18;;;;;;;37.60;25.67;;;;;;;;;;5020459;28;20530;-54
2022/08/27 01:10:44;;;;;;;35.03;25.20;;;;;;;;;;5024743;28;20217;-53
2022/08/27 01:13:10;;;;;;;37.53;24.90;;;;;;;;;;5025309;28;20563;-53
2022/08/27 01:15:36;;;;;;;46.00;27.70;;;;;;;;;;5012380;28;20435;-53
2022/08/27 01:18:03;;;;;;;37.63;25.33;;;;;;;;;;5025646;28;20203;-54
2022/08/27 01:20:29;;;;;;;42.43;29.10;;;;;;;;;;5029031;28;20454;-53
2022/08/27 01:22:55;;;;;;;35.50;25.70;;;;;;;;;;5008294;28;20435;-53
2022/08/27 01:25:22;;;;;;;34.63;26.63;;;;;;;;;;5027093;28;20439;-53
2022/08/27 01:27:48;;;;;;;32.63;25.40;;;;;;;;;;5028498;28;20795;-53
2022/08/27 01:30:15;;;;;;;38.87;27.00;;;;;;;;;;5007513;28;21082;-52
2022/08/27 01:32:41;;;;;;;32.40;23.37;;;;;;;;;;4985320;28;20478;-54
2022/08/27 01:35:07;;;;;;;32.70;24.53;;;;;;;;;;5012083;28;20431;-54
2022/08/27 01:37:33;;;;;;;37.30;25.97;;;;;;;;;;5026554;28;20439;-54
2022/08/27 01:40:00;;;;;;;33.93;25.57;;;;;;;;;;5008665;28;20946;-54
2022/08/27 01:42:27;;;;;;;35.53;25.30;;;;;;;;;;5019868;28;20973;-53
2022/08/27 01:44:54;;;;;;;32.20;25.37;;;;;;;;;;5030013;28;20438;-52
2022/08/27 01:47:21;;;;;;;34.50;24.33;;;;;;;;;;5024188;28;20446;-52
2022/08/27 01:49:47;;;;;;;35.77;26.10;;;;;;;;;;5022123;28;20439;-53
2022/08/27 01:52:13;;;;;;;36.27;27.00;;;;;;;;;;5021199;28;20477;-53
2022/08/27 01:54:39;;;;;;;33.60;26.03;;;;;;;;;;5028417;28;20522;-53
2022/08/27 01:57:05;;;;;;;36.37;25.17;;;;;;;;;;5022920;28;20596;-53
2022/08/27 01:59:32;;;;;;;36.57;26.00;;;;;;;;;;5029214;28;20423;-51
2022/08/27 02:01:58;;;;;;;38.07;24.93;;;;;;;;;;4979788;28;21130;-54
2022/08/27 02:04:24;;;;;;;43.17;28.10;;;;;;;;;;5024930;28;20960;-53
2022/08/27 02:06:51;;;;;;;37.73;26.60;;;;;;;;;;5026031;28;21123;-53
2022/08/27 02:09:17;;;;;;;37.23;28.20;;;;;;;;;;5027246;28;20474;-53
2022/08/27 02:11:43;;;;;;;41.53;27.17;;;;;;;;;;5004879;28;20511;-53
2022/08/27 02:14:09;;;;;;;35.20;27.33;;;;;;;;;;5009481;28;20494;-54
2022/08/27 02:16:35;;;;;;;39.30;28.37;;;;;;;;;;5004495;28;20239;-53
2022/08/27 02:19:01;;;;;;;41.77;29.50;;;;;;;;;;5009125;28;21164;-53
2022/08/27 02:21:27;;;;;;;42.80;29.67;;;;;;;;;;5022464;28;20423;-53
2022/08/27 02:23:54;;;;;;;44.83;28.57;;;;;;;;;;5030907;28;20474;-53
2022/08/27 02:26:20;;;;;;;44.43;30.20;;;;;;;;;;5005687;28;20271;-53
2022/08/27 02:28:46;;;;;;;41.77;30.17;;;;;;;;;;5021608;28;20439;-53
2022/08/27 02:31:12;;;;;;;40.80;27.80;;;;;;;;;;5022210;28;20505;-53
2022/08/27 02:33:38;;;;;;;40.57;28.63;;;;;;;;;;5028581;28;20432;-53
2022/08/27 02:36:04;;;;;;;34.20;27.40;;;;;;;;;;4982443;28;20462;-53
2022/08/27 02:38:30;;;;;;;36.90;26.27;;;;;;;;;;5030126;28;20446;-54
2022/08/27 02:40:56;;;;;;;34.03;25.83;;;;;;;;;;5026002;28;20439;-54
2022/08/27 02:43:22;;;;;;;38.03;29.20;;;;;;;;;;5027368;28;20507;-53
2022/08/27 02:45:50;;;;;;;39.67;26.30;;;;;;;;;;5001172;28;20521;-53
2022/08/27 02:48:16;;;;;;;34.10;26.47;;;;;;;;;;5026111;28;20690;-52
2022/08/27 02:50:45;;;;;;;35.67;25.50;;;;;;;;;;5020213;28;20533;-53
2022/08/27 02:53:11;;;;;;;36.97;26.33;;;;;;;;;;5027807;28;20207;-54
2022/08/27 02:55:37;;;;;;;35.90;26.77;;;;;;;;;;5024653;28;20443;-54
2022/08/27 02:58:03;;;;;;;40.03;26.27;;;;;;;;;;5030259;28;20177;-53
2022/08/27 03:00:29;;;;;;;37.10;25.10;;;;;;;;;;5018447;28;21389;-52
2022/08/27 03:02:55;;;;;;;37.90;25.90;;;;;;;;;;5024175;28;20523;-52
2022/08/27 03:05:21;;;;;;;34.00;25.53;;;;;;;;;;4976872;28;21104;-53
2022/08/27 03:07:48;;;;;;;34.13;23.10;;;;;;;;;;5017332;28;20446;-52
2022/08/27 03:10:14;;;;;;;30.33;23.57;;;;;;;;;;5021396;28;21011;-53
2022/08/27 03:12:40;;;;;;;32.23;23.73;;;;;;;;;;5026840;28;20524;-53
2022/08/27 03:15:07;;;;;;;28.57;23.27;;;;;;;;;;5025293;28;20411;-53
2022/08/27 03:20:18;;;;;;;30.80;22.60;;;;;;;;;;5021354;28;20434;-53
2022/08/27 03:22:44;;;;;;;29.07;19.60;;;;;;;;;;5021875;28;20432;-53
2022/08/27 03:25:10;;;;;;;28.13;19.10;;;;;;;;;;5003689;28;20439;-53
2022/08/27 03:27:36;;;;;;;23.23;19.50;;;;;;;;;;5026170;28;20450;-53
2022/08/27 03:30:05;;;;;;;25.80;19.57;;;;;;;;;;5022452;28;22456;-52
2022/08/27 03:32:31;;;;;;;25.90;18.93;;;;;;;;;;5025633;28;20478;-53
2022/08/27 03:34:58;;;;;;;22.57;19.53;;;;;;;;;;4984454;28;20454;-54
2022/08/27 03:37:24;;;;;;;21.83;17.37;;;;;;;;;;5021348;28;20555;-54
2022/08/27 03:39:50;;;;;;;25.37;20.00;;;;;;;;;;5016815;28;20435;-54
2022/08/27 03:42:16;;;;;;;25.53;20.40;;;;;;;;;;5026240;28;20438;-54
2022/08/27 03:44:42;;;;;;;24.23;18.57;;;;;;;;;;5026086;28;20457;-54
2022/08/27 03:47:07;;;;;;;23.17;18.67;;;;;;;;;;5023988;28;20560;-54
2022/08/27 03:49:33;;;;;;;22.90;18.80;;;;;;;;;;5027451;28;20558;-54
2022/08/27 03:51:59;;;;;;;24.10;20.90;;;;;;;;;;5018568;28;20284;-53
2022/08/27 03:54:25;;;;;;;26.77;19.27;;;;;;;;;;5023726;28;20680;-53
2022/08/27 03:56:51;;;;;;;24.87;19.80;;;;;;;;;;5009457;28;20455;-54
2022/08/27 03:59:17;;;;;;;24.73;18.53;;;;;;;;;;5027098;28;20431;-54
2022/08/27 04:01:44;;;;;;;24.07;19.27;;;;;;;;;;5024845;28;20242;-53
2022/08/27 04:04:09;;;;;;;23.23;17.80;;;;;;;;;;5020585;28;20467;-54
2022/08/27 04:06:35;;;;;;;25.50;18.43;;;;;;;;;;5023342;28;20472;-54
2022/08/27 04:09:02;;;;;;;28.93;21.77;;;;;;;;;;5028951;28;20439;-54
2022/08/27 04:11:28;;;;;;;26.30;21.00;;;;;;;;;;4975916;28;20474;-54
2022/08/27 04:13:54;;;;;;;29.60;22.57;;;;;;;;;;5027115;28;20430;-53
2022/08/27 04:16:20;;;;;;;33.50;25.83;;;;;;;;;;4987395;28;20447;-54
2022/08/27 04:18:46;;;;;;;27.20;24.13;;;;;;;;;;5025780;28;20465;-55
2022/08/27 04:21:13;;;;;;;38.23;25.00;;;;;;;;;;5015053;28;20439;-55
2022/08/27 04:23:39;;;;;;;35.87;26.23;;;;;;;;;;5023605;28;20458;-54
2022/08/27 04:26:05;;;;;;;38.87;30.00;;;;;;;;;;5004914;28;20431;-54
2022/08/27 04:28:31;;;;;;;44.83;30.70;;;;;;;;;;5006136;28;21128;-54
2022/08/27 04:30:57;;;;;;;54.43;34.80;;;;;;;;;;5018663;28;20483;-54
2022/08/27 04:33:23;;;;;;;60.60;35.80;;;;;;;;;;5028777;28;20431;-55
2022/08/27 04:35:59;;;;;;;51.10;35.50;;;;;;;;;;5011583;28;20573;-54
2022/08/27 04:38:25;;;;;;;53.67;34.87;;;;;;;;;;5011713;28;20517;-53
2022/08/27 04:43:35;;;;;;;56.23;36.80;;;;;;;;;;5017816;28;20453;-53
2022/08/27 04:46:01;;;;;;;52.83;35.10;;;;;;;;;;4977564;28;20452;-54
2022/08/27 04:48:27;;;;;;;55.97;37.37;;;;;;;;;;5025478;28;21044;-53
2022/08/27 04:50:53;;;;;;;58.73;37.87;;;;;;;;;;5024627;28;20589;-52
2022/08/27 04:53:19;;;;;;;56.80;36.97;;;;;;;;;;5018067;28;20691;-54
2022/08/27 04:55:45;;;;;;;59.07;37.70;;;;;;;;;;5024675;28;20952;-53
2022/08/27 04:58:11;;;;;;;54.90;36.93;;;;;;;;;;5020572;28;20416;-54
2022/08/27 05:00:45;;;;;;;67.77;36.80;;;;;;;;;;5022491;28;20431;-57
2022/08/27 05:03:11;;;;;;;61.20;37.93;;;;;;;;;;5022278;28;20444;-53
2022/08/27 05:05:37;;;;;;;55.03;36.67;;;;;;;;;;5003444;28;20456;-53
2022/08/27 05:08:04;;;;;;;53.63;35.83;;;;;;;;;;5024912;28;20488;-54
2022/08/27 05:10:29;;;;;;;56.93;36.13;;;;;;;;;;5020376;28;20461;-54
2022/08/27 05:12:56;;;;;;;57.07;35.70;;;;;;;;;;5028123;28;21155;-53
2022/08/27 05:15:22;;;;;;;49.53;33.30;;;;;;;;;;5020793;28;20667;-53
2022/08/27 05:17:47;;;;;;;49.03;33.03;;;;;;;;;;5026269;28;20442;-53
2022/08/27 05:20:13;;;;;;;47.87;34.67;;;;;;;;;;4961625;28;20196;-54
2022/08/27 05:22:39;;;;;;;54.43;33.73;;;;;;;;;;5024246;28;20187;-55
2022/08/27 05:25:05;;;;;;;52.83;35.20;;;;;;;;;;5004888;28;22832;-55
2022/08/27 05:27:31;;;;;;;45.70;34.10;;;;;;;;;;5026225;28;20187;-55
2022/08/27 05:29:57;;;;;;;49.43;34.90;;;;;;;;;;5024152;28;20415;-54
2022/08/27 05:32:23;;;;;;;53.83;36.00;;;;;;;;;;5023432;28;20485;-54
2022/08/27 05:34:49;;;;;;;45.80;33.30;;;;;;;;;;5005339;28;20439;-55
2022/08/27 05:37:15;;;;;;;50.67;34.10;;;;;;;;;;5017520;28;20450;-54
2022/08/27 05:39:41;;;;;;;47.40;30.47;;;;;;;;;;5014882;28;20396;-53
2022/08/27 05:42:07;;;;;;;44.03;31.70;;;;;;;;;;5021963;28;20431;-53
2022/08/27 05:44:33;;;;;;;42.20;30.03;;;;;;;;;;5019771;28;20184;-53
2022/08/27 05:46:59;;;;;;;46.10;33.30;;;;;;;;;;5024228;28;20323;-54
2022/08/27 05:49:25;;;;;;;44.37;32.40;;;;;;;;;;5025409;28;20718;-53
2022/08/27 05:51:51;;;;;;;50.27;33.40;;;;;;;;;;5025313;28;20888;-53
2022/08/27 05:54:26;;;;;;;43.40;30.73;;;;;;;;;;5027187;28;20180;-53
2022/08/27 05:56:52;;;;;;;39.80;31.53;;;;;;;;;;4997935;28;20192;-53
2022/08/27 06:02:03;;;;;;;42.40;30.03;;;;;;;;;;5026488;28;20690;-53
2022/08/27 06:04:29;;;;;;;38.13;31.50;;;;;;;;;;5016528;28;20512;-54
2022/08/27 06:06:55;;;;;;;37.07;27.93;;;;;;;;;;5015452;28;20738;-53
2022/08/27 06:09:22;;;;;;;42.90;30.70;;;;;;;;;;5030051;28;20673;-52
2022/08/27 06:11:48;;;;;;;41.10;29.80;;;;;;;;;;5020763;28;20463;-53
2022/08/27 06:14:14;;;;;;;39.67;30.83;;;;;;;;;;5025093;28;20427;-53
2022/08/27 06:16:40;;;;;;;43.47;31.97;;;;;;;;;;5016066;28;20482;-53
2022/08/27 06:19:06;;;;;;;44.57;31.83;;;;;;;;;;5028353;28;20462;-53
2022/08/27 06:21:32;;;;;;;40.73;32.10;;;;;;;;;;5004846;28;20431;-56
2022/08/27 06:23:58;;;;;;;44.93;30.50;;;;;;;;;;5029542;28;20438;-53
2022/08/27 06:26:24;;;;;;;45.00;31.93;;;;;;;;;;4981848;28;20529;-54
2022/08/27 06:28:50;;;;;;;44.87;31.17;;;;;;;;;;5011506;28;20193;-54
2022/08/27 06:31:18;;;;;;;45.93;31.00;;;;;;;;;;5018174;28;20484;-54
2022/08/27 06:33:43;;;;;;;43.73;30.77;;;;;;;;;;5031061;28;21004;-54
2022/08/27 06:36:10;;;;;;;47.40;33.20;;;;;;;;;;5017215;28;20428;-54
2022/08/27 06:38:36;;;;;;;43.70;31.83;;;;;;;;;;5024102;28;20432;-55
2022/08/27 06:41:03;;;;;;;42.60;29.27;;;;;;;;;;5018809;28;20998;-54
2022/08/27 06:43:29;;;;;;;39.57;28.90;;;;;;;;;;5026183;28;20435;-56
2022/08/27 06:45:55;;;;;;;41.40;31.87;;;;;;;;;;5001857;28;20453;-54
2022/08/27 06:48:21;;;;;;;42.17;30.67;;;;;;;;;;5030671;28;20427;-54
2022/08/27 06:50:47;;;;;;;40.70;30.97;;;;;;;;;;5018539;28;20541;-54
2022/08/27 06:53:13;;;;;;;37.03;27.30;;;;;;;;;;5025040;28;20503;-54
2022/08/27 06:55:42;;;;;;;34.87;28.80;;;;;;;;;;4992888;28;20466;-54
2022/08/27 06:58:09;;;;;;;37.60;28.03;;;;;;;;;;5025908;28;20470;-54
2022/08/27 07:00:35;;;;;;;37.00;30.47;;;;;;;;;;4982231;28;20542;-55
2022/08/27 07:03:04;;;;;;;38.03;29.20;;;;;;;;;;5025425;28;20431;-54
2022/08/27 07:05:30;;;;;;;40.27;29.07;;;;;;;;;;4998424;28;20438;-54
2022/08/27 07:07:56;;;;;;;40.03;30.00;;;;;;;;;;5025686;28;20443;-55
2022/08/27 07:10:23;;;;;;;36.40;30.13;;;;;;;;;;5015814;28;20433;-55
2022/08/27 07:12:49;;;;;;;37.70;26.30;;;;;;;;;;5024788;28;20287;-54
2022/08/27 07:15:15;;;;;;;39.83;26.87;;;;;;;;;;5024047;28;20502;-54
2022/08/27 07:17:43;;;;;;;34.50;27.40;;;;;;;;;;5030322;28;20648;-55
2022/08/27 07:20:09;;;;;;;37.00;27.27;;;;;;;;;;5019604;28;21120;-55
2022/08/27 07:22:35;;;;;;;34.80;27.70;;;;;;;;;;5022362;28;20450;-55
2022/08/27 07:25:01;;;;;;;32.53;25.80;;;;;;;;;;5007332;28;21314;-55
2022/08/27 07:27:27;;;;;;;36.60;25.93;;;;;;;;;;5009528;28;20451;-53
2022/08/27 07:29:53;;;;;;;31.43;27.87;;;;;;;;;;4989061;28;20446;-54
2022/08/27 07:32:19;;;;;;;32.90;26.00;;;;;;;;;;5018528;28;20212;-53
2022/08/27 07:34:45;;;;;;;34.47;28.00;;;;;;;;;;5018710;28;20441;-55
2022/08/27 07:37:11;;;;;;;35.83;29.10;;;;;;;;;;5018961;28;20192;-54
2022/08/27 07:39:37;;;;;;;32.60;25.67;;;;;;;;;;5024497;28;20184;-54
2022/08/27 07:44:48;;;;;;;35.73;28.50;;;;;;;;;;5009127;28;20314;-53
2022/08/27 07:47:14;;;;;;;40.57;30.13;;;;;;;;;;5020465;28;20443;-53
2022/08/27 07:49:40;;;;;;;33.37;28.37;;;;;;;;;;5023379;28;20436;-54
2022/08/27 07:52:06;;;;;;;39.67;29.67;;;;;;;;;;5022914;28;20215;-53
2022/08/27 07:54:33;;;;;;;31.77;26.00;;;;;;;;;;5021856;28;20509;-53
2022/08/27 07:56:59;;;;;;;39.67;29.80;;;;;;;;;;5013858;28;20188;-54
2022/08/27 07:59:26;;;;;;;34.27;27.20;;;;;;;;;;5010566;28;20435;-54
2022/08/27 08:01:52;;;;;;;34.00;27.80;;;;;;;;;;4988258;28;20455;-53
2022/08/27 08:04:17;;;;;;;40.33;30.10;;;;;;;;;;5022674;28;20450;-53
2022/08/27 08:06:43;;;;;;;42.93;29.30;;;;;;;;;;4999510;28;20451;-53
2022/08/27 08:09:09;;;;;;;33.57;28.20;;;;;;;;;;5028906;28;20180;-53
2022/08/27 08:11:35;;;;;;;35.17;28.80;;;;;;;;;;5018177;28;20470;-53
2022/08/27 08:14:01;;;;;;;36.50;26.60;;;;;;;;;;5027899;28;20292;-52
2022/08/27 08:16:28;;;;;;;38.37;28.80;;;;;;;;;;4998353;28;20456;-53
2022/08/27 08:18:54;;;;;;;35.43;28.17;;;;;;;;;;5028643;28;20173;-53
2022/08/27 08:21:20;;;;;;;43.00;30.00;;;;;;;;;;5022648;28;20806;-53
2022/08/27 08:23:48;;;;;;;38.80;28.30;;;;;;;;;;5028773;28;20682;-53
2022/08/27 08:26:13;;;;;;;39.07;30.33;;;;;;;;;;5023702;28;20438;-53
2022/08/27 08:28:39;;;;;;;40.43;31.73;;;;;;;;;;5003480;28;20977;-57
2022/08/27 08:31:06;;;;;;;43.47;31.43;;;;;;;;;;4979580;28;20215;-54
2022/08/27 08:33:32;;;;;;;40.47;30.43;;;;;;;;;;5025366;28;20440;-54
2022/08/27 08:36:17;;;;;;;42.00;30.13;;;;;;;;;;5003481;28;20438;-55
2022/08/27 08:38:43;;;;;;;40.13;29.47;;;;;;;;;;5024081;28;20430;-55
2022/08/27 08:41:24;;;;;;;44.17;31.27;;;;;;;;;;5017223;28;20427;-54
2022/08/27 08:43:50;;;;;;;43.10;32.20;;;;;;;;;;4992838;28;20434;-54
2022/08/27 08:46:36;;;;;;;46.70;30.93;;;;;;;;;;4999608;28;20486;-55
2022/08/27 08:49:07;;;;;;;42.77;33.07;;;;;;;;;;5010392;28;20442;-54
2022/08/27 08:51:35;;;;;;;43.80;30.33;;;;;;;;;;4998148;28;20470;-54
2022/08/27 08:54:19;;;;;;;44.20;33.03;;;;;;;;;;5027888;28;20834;-54
2022/08/27 08:56:51;;;;;;;54.47;32.73;;;;;;;;;;4984500;28;20450;-54
2022/08/27 08:59:37;;;;;;;44.03;31.30;;;;;;;;;;5029073;28;20438;-54
2022/08/27 09:02:03;;;;;;;49.07;31.40;;;;;;;;;;5001995;28;21056;-54
2022/08/27 09:04:29;;;;;;;42.13;31.13;;;;;;;;;;4990552;28;20435;-55
2022/08/27 09:07:02;;;;;;;46.77;33.73;;;;;;;;;;4995302;28;20976;-54
2022/08/27 09:09:47;;;;;;;42.60;31.70;;;;;;;;;;5017353;28;21438;-54
2022/08/27 09:12:25;;;;;;;38.70;29.80;;;;;;;;;;5019492;28;20474;-54
2022/08/27 09:15:00;;;;;;;40.70;31.20;;;;;;;;;;4970430;28;20997;-54
2022/08/27 09:17:26;;;;;;;41.30;31.20;;;;;;;;;;5022158;28;20443;-53
2022/08/27 09:19:52;;;;;;;35.57;30.50;;;;;;;;;;5019774;28;20489;-53
2022/08/27 09:22:23;;;;;;;45.20;30.70;;;;;;;;;;5023368;28;20978;-53
2022/08/27 09:25:00;;;;;;;38.30;30.13;;;;;;;;;;5017554;28;20420;-54
2022/08/27 09:27:25;;;;;;;41.10;30.30;;;;;;;;;;5013034;28;20506;-53
2022/08/27 09:29:52;;;;;;;41.67;31.10;;;;;;;;;;5027795;28;20801;-54
2022/08/27 09:32:25;;;;;;;44.83;30.00;;;;;;;;;;5029375;28;21028;-53
2022/08/27 09:34:51;;;;;;;39.20;28.47;;;;;;;;;;5013608;28;20698;-53
2022/08/27 09:37:21;;;;;;;33.97;24.70;;;;;;;;;;5022859;28;20539;-53
2022/08/27 09:39:49;;;;;;;28.30;22.00;;;;;;;;;;4986498;28;20219;-54
2022/08/27 09:42:22;;;;;;;25.10;21.10;;;;;;;;;;5007370;28;20436;-55
2022/08/27 09:44:48;;;;;;;25.90;19.67;;;;;;;;;;4999281;28;20435;-55
2022/08/27 09:47:14;;;;;;;23.70;20.50;;;;;;;;;;5024588;28;20954;-53
2022/08/27 09:49:40;;;;;;;21.97;18.27;;;;;;;;;;5029395;28;20175;-53
2022/08/27 09:52:06;;;;;;;15.90;14.10;;;;;;;;;;5010568;28;20485;-53
2022/08/27 09:54:37;;;;;;;17.33;15.57;;;;;;;;;;5021588;28;20480;-51
2022/08/27 09:57:03;;;;;;;17.60;14.90;;;;;;;;;;5019573;28;20447;-52
2022/08/27 09:59:36;;;;;;;17.80;15.90;;;;;;;;;;5026614;28;20454;-53
2022/08/27 10:02:18;;;;;;;19.13;17.23;;;;;;;;;;5021439;28;20849;-52
2022/08/27 10:04:48;;;;;;;16.73;15.03;;;;;;;;;;5008278;28;21137;-53
2022/08/27 10:07:30;;;;;;;21.33;16.83;;;;;;;;;;5001669;28;20459;-53
2022/08/27 10:10:14;;;;;;;22.97;17.40;;;;;;;;;;5010863;28;20430;-53
2022/08/27 10:12:40;;;;;;;22.53;18.30;;;;;;;;;;5012513;28;20474;-53
2022/08/27 10:15:14;;;;;;;19.40;17.30;;;;;;;;;;4982147;28;20458;-52
2022/08/27 10:17:40;;;;;;;21.63;17.50;;;;;;;;;;5023471;28;20431;-53
2022/08/27 10:20:12;;;;;;;20.70;18.50;;;;;;;;;;5022208;28;20531;-53
2022/08/27 10:22:45;;;;;;;21.50;18.53;;;;;;;;;;5007063;28;20200;-53
2022/08/27 10:25:20;;;;;;;21.63;17.67;;;;;;;;;;5025656;28;20459;-53
2022/08/27 10:27:52;;;;;;;23.23;19.70;;;;;;;;;;5024098;28;20461;-52
2022/08/27 10:30:20;;;;;;;21.87;17.97;;;;;;;;;;5018737;28;20442;-52
2022/08/27 10:32:57;;;;;;;20.07;17.30;;;;;;;;;;4996401;28;20528;-52
2022/08/27 10:35:26;;;;;;;20.07;17.10;;;;;;;;;;5007158;28;20523;-52
2022/08/27 10:38:01;;;;;;;21.53;17.77;;;;;;;;;;5027468;28;20474;-55
2022/08/27 10:40:29;;;;;;;21.33;16.90;;;;;;;;;;5018611;28;20438;-52
2022/08/27 10:43:01;;;;;;;21.77;18.50;;;;;;;;;;5004869;28;20431;-55
2022/08/27 10:45:41;;;;;;;21.57;18.50;;;;;;;;;;5010372;28;20577;-52
2022/08/27 10:48:16;;;;;;;21.10;17.77;;;;;;;;;;5006789;28;20581;-52
2022/08/27 10:50:44;;;;;;;21.30;18.37;;;;;;;;;;4981001;28;20451;-52
2022/08/27 10:53:11;;;;;;;23.70;18.37;;;;;;;;;;5002221;28;20569;-52
2022/08/27 10:55:40;;;;;;;19.93;17.13;;;;;;;;;;5022235;28;20424;-52
2022/08/27 10:58:36;;;;;;;21.97;18.70;;;;;;;;;;5028346;28;20838;-52
2022/08/27 11:01:21;;;;;;;21.00;18.13;;;;;;;;;;5006970;28;20447;-53
2022/08/27 11:03:47;;;;;;;23.67;21.17;;;;;;;;;;5021136;28;20906;-52
2022/08/27 11:06:27;;;;;;;20.47;17.20;;;;;;;;;;5016371;28;20473;-53
2022/08/27 11:08:55;;;;;;;24.17;19.13;;;;;;;;;;5014606;28;20468;-53
2022/08/27 11:11:31;;;;;;;26.63;20.20;;;;;;;;;;5026500;28;20550;-53
2022/08/27 11:13:58;;;;;;;27.30;18.47;;;;;;;;;;5014991;28;20940;-53
2022/08/27 11:16:33;;;;;;;26.47;20.63;;;;;;;;;;5004100;28;20467;-53
2022/08/27 11:19:03;;;;;;;22.90;20.03;;;;;;;;;;5012061;28;20449;-53
2022/08/27 11:21:34;;;;;;;26.90;20.50;;;;;;;;;;4968680;28;20443;-53
2022/08/27 11:24:23;;;;;;;22.27;19.93;;;;;;;;;;5029419;28;20813;-53
2022/08/27 11:26:50;;;;;;;23.70;21.13;;;;;;;;;;5010349;28;20442;-53
2022/08/27 11:29:21;;;;;;;26.07;20.13;;;;;;;;;;5024548;28;20447;-52
2022/08/27 11:31:50;;;;;;;23.00;19.93;;;;;;;;;;5018262;28;20481;-53
2022/08/27 11:34:27;;;;;;;28.07;21.40;;;;;;;;;;5007449;28;20437;-53
2022/08/27 11:37:05;;;;;;;26.17;19.90;;;;;;;;;;5018889;28;20431;-54
2022/08/27 11:39:44;;;;;;;25.80;22.83;;;;;;;;;;4984043;28;20435;-54
2022/08/27 11:42:13;;;;;;;27.20;22.00;;;;;;;;;;5023101;28;20439;-54
2022/08/27 11:44:42;;;;;;;30.60;21.10;;;;;;;;;;5019711;28;20530;-55
2022/08/27 11:47:09;;;;;;;25.23;20.90;;;;;;;;;;5017034;28;20462;-53
2022/08/27 11:49:55;;;;;;;28.70;22.50;;;;;;;;;;5006173;28;20540;-54
2022/08/27 11:52:25;;;;;;;23.37;20.57;;;;;;;;;;5016367;28;20479;-54
2022/08/27 11:54:52;;;;;;;25.30;22.20;;;;;;;;;;5019666;28;20428;-53
2022/08/27 11:57:31;;;;;;;26.70;19.50;;;;;;;;;;5014858;28;20441;-53
2022/08/27 11:59:58;;;;;;;25.80;20.70;;;;;;;;;;5022409;28;20661;-54
2022/08/27 12:02:28;;;;;;;22.33;19.93;;;;;;;;;;5023207;28;20470;-54
2022/08/27 12:04:56;;;;;;;27.57;22.00;;;;;;;;;;5025951;28;20454;-55
2022/08/27 12:07:23;;;;;;;28.23;21.87;;;;;;;;;;5024836;28;20431;-55
2022/08/27 12:09:54;;;;;;;23.80;19.90;;;;;;;;;;5020776;28;20451;-52
2022/08/27 12:12:25;;;;;;;22.97;19.47;;;;;;;;;;5001118;28;20538;-53
2022/08/27 12:14:59;;;;;;;31.10;23.70;;;;;;;;;;5007398;28;20427;-53
2022/08/27 12:17:38;;;;;;;26.17;23.40;;;;;;;;;;4984776;28;20438;-51
2022/08/27 12:20:07;;;;;;;29.33;24.30;;;;;;;;;;5014576;28;20445;-54
2022/08/27 12:23:38;;;;;;;31.87;22.77;;;;;;;;;;4984283;28;20934;-53
2022/08/27 12:25:34;;;;;;;28.33;22.13;;;;;;;;;;5009102;28;20432;-53
2022/08/27 12:28:02;;;;;;;29.20;23.00;;;;;;;;;;5021427;28;21187;-53
2022/08/27 12:30:29;;;;;;;26.60;22.73;;;;;;;;;;5006906;28;20451;-53
2022/08/27 12:32:55;;;;;;;24.43;21.70;;;;;;;;;;5023521;28;20471;-53
2022/08/27 12:35:41;;;;;;;27.63;24.63;;;;;;;;;;5019794;28;20558;-53
2022/08/27 12:38:13;;;;;;;25.73;21.70;;;;;;;;;;4993023;28;20431;-53
2022/08/27 12:40:52;;;;;;;25.03;22.30;;;;;;;;;;5025070;28;20509;-53
2022/08/27 12:43:18;;;;;;;29.20;24.50;;;;;;;;;;5020730;28;20443;-53
2022/08/27 12:45:48;;;;;;;26.80;23.60;;;;;;;;;;4996475;28;20442;-53
2022/08/27 12:48:17;;;;;;;29.33;22.33;;;;;;;;;;5005854;28;20188;-54
2022/08/27 12:50:43;;;;;;;28.87;23.43;;;;;;;;;;4991364;28;20541;-54
2022/08/27 12:53:12;;;;;;;26.57;23.80;;;;;;;;;;5012098;28;20472;-54
2022/08/27 12:55:44;;;;;;;25.87;21.47;;;;;;;;;;5001535;28;20423;-53
2022/08/27 12:58:12;;;;;;;26.83;22.63;;;;;;;;;;5027601;28;21267;-53
2022/08/27 13:00:47;;;;;;;25.57;22.77;;;;;;;;;;5026139;28;20961;-53
2022/08/27 13:03:13;;;;;;;28.93;23.63;;;;;;;;;;5009357;28;20516;-53
2022/08/27 13:05:41;;;;;;;26.57;21.20;;;;;;;;;;5019543;28;20589;-54
2022/08/27 13:08:16;;;;;;;27.47;22.17;;;;;;;;;;5025891;28;20503;-53
2022/08/27 13:10:43;;;;;;;24.37;21.80;;;;;;;;;;5010202;28;20416;-53
2022/08/27 13:13:11;;;;;;;25.67;22.43;;;;;;;;;;5031964;28;20474;-53
2022/08/27 13:15:41;;;;;;;23.93;21.40;;;;;;;;;;5023335;28;20466;-53
2022/08/27 13:18:07;;;;;;;25.50;21.70;;;;;;;;;;5026069;28;20865;-54
2022/08/27 13:20:34;;;;;;;24.80;21.87;;;;;;;;;;5014783;28;20534;-53
2022/08/27 13:23:00;;;;;;;27.77;22.30;;;;;;;;;;5013301;28;20228;-53
2022/08/27 13:25:27;;;;;;;24.80;20.60;;;;;;;;;;4997102;28;20474;-54
2022/08/27 13:27:58;;;;;;;23.30;20.13;;;;;;;;;;4991244;28;20215;-54
2022/08/27 13:30:24;;;;;;;24.10;21.57;;;;;;;;;;5032046;28;21134;-55
2022/08/27 13:32:50;;;;;;;24.33;20.80;;;;;;;;;;5014507;28;20513;-54
2022/08/27 13:35:17;;;;;;;22.77;20.53;;;;;;;;;;5020883;28;20966;-55
2022/08/27 13:37:44;;;;;;;26.90;19.73;;;;;;;;;;5005776;28;20450;-54
2022/08/27 13:40:10;;;;;;;23.67;20.73;;;;;;;;;;5015977;28;20449;-53
2022/08/27 13:42:39;;;;;;;23.73;21.30;;;;;;;;;;5032119;28;20474;-53
2022/08/27 13:45:06;;;;;;;23.67;20.47;;;;;;;;;;5016614;28;20435;-54
2022/08/27 13:47:32;;;;;;;23.20;19.10;;;;;;;;;;5003762;28;20516;-54
2022/08/27 13:50:08;;;;;;;22.90;20.57;;;;;;;;;;5020035;28;20862;-55
2022/08/27 13:52:35;;;;;;;23.67;19.40;;;;;;;;;;5011051;28;20484;-54
2022/08/27 13:55:08;;;;;;;24.73;21.10;;;;;;;;;;5011155;28;20441;-54
2022/08/27 13:57:41;;;;;;;22.93;19.57;;;;;;;;;;4989848;28;20536;-54
2022/08/27 14:00:10;;;;;;;21.17;18.97;;;;;;;;;;5030654;28;20903;-54
2022/08/27 14:02:36;;;;;;;21.07;18.97;;;;;;;;;;5030586;28;20790;-53
2022/08/27 14:05:04;;;;;;;21.53;19.20;;;;;;;;;;5029065;28;20584;-54
2022/08/27 14:07:34;;;;;;;22.30;19.93;;;;;;;;;;5006186;28;20446;-53
2022/08/27 14:10:08;;;;;;;20.07;18.13;;;;;;;;;;5014624;28;20430;-53
2022/08/27 14:12:35;;;;;;;20.90;17.13;;;;;;;;;;5027250;28;20474;-54
2022/08/27 14:15:20;;;;;;;20.77;17.80;;;;;;;;;;5012352;28;20434;-53
2022/08/27 14:17:46;;;;;;;28.13;19.70;;;;;;;;;;5026265;28;20431;-54
2022/08/27 14:20:14;;;;;;;22.03;19.63;;;;;;;;;;5028176;28;20470;-55
2022/08/27 14:22:40;;;;;;;24.50;20.53;;;;;;;;;;5025536;28;20888;-53
2022/08/27 14:25:06;;;;;;;24.83;20.50;;;;;;;;;;5029108;28;20467;-53
2022/08/27 14:27:34;;;;;;;24.60;21.53;;;;;;;;;;5020299;28;20193;-53
2022/08/27 14:30:00;;;;;;;26.23;19.87;;;;;;;;;;5007692;28;20435;-55
2022/08/27 14:32:26;;;;;;;19.60;17.70;;;;;;;;;;4977972;28;20520;-53
2022/08/27 14:34:52;;;;;;;20.33;18.23;;;;;;;;;;5024235;28;20597;-54